createdAt,value
2023-02-23T00:01:22.953Z,8.07
2023-02-23T00:04:26.411Z,8.06
2023-02-23T00:07:33.395Z,8.18
2023-02-23T00:10:36.687Z,8.03
2023-02-23T00:13:42.121Z,8.14
2023-02-23T00:16:46.434Z,8.13
2023-02-23T00:19:49.555Z,8.13
2023-02-23T00:22:57.264Z,8.10
2023-02-23T00:26:01.228Z,8.03
2023-02-23T00:29:19.045Z,8.12
2023-02-23T00:32:24.023Z,8.11
2023-02-23T00:35:27.357Z,8.07
2023-02-23T00:38:35.952Z,7.89
2023-02-23T00:41:38.826Z,7.95
2023-02-23T00:44:42.674Z,7.98
2023-02-23T00:47:48.825Z,7.90
2023-02-23T00:51:03.383Z,7.83
2023-02-23T00:54:08.259Z,7.78
2023-02-23T00:57:10.831Z,7.69
2023-02-23T01:00:20.317Z,7.83
2023-02-23T01:03:23.808Z,7.59
2023-02-23T01:06:26.798Z,7.73
2023-02-23T01:09:29.683Z,7.76
2023-02-23T01:12:33.535Z,7.69
2023-02-23T01:15:43.152Z,7.77
2023-02-23T01:18:46.954Z,7.77
2023-02-23T01:21:50.093Z,7.70
2023-02-23T01:24:56.374Z,7.76
2023-02-23T01:27:58.975Z,7.58
2023-02-23T01:31:03.246Z,7.57
2023-02-23T01:34:06.863Z,7.59
2023-02-23T01:37:11.003Z,7.58
2023-02-23T01:40:31.261Z,7.60
2023-02-23T01:43:37.315Z,7.44
2023-02-23T01:46:46.564Z,7.65
2023-02-23T01:49:51.887Z,7.65
2023-02-23T01:52:56.906Z,7.55
2023-02-23T01:56:14.893Z,7.59
2023-02-23T01:59:20.775Z,7.39
2023-02-23T02:02:33.885Z,7.43
2023-02-23T02:05:39.545Z,7.40
2023-02-23T02:08:50.808Z,7.40
2023-02-23T02:11:55.242Z,7.45
2023-02-23T02:15:00.736Z,7.38
2023-02-23T02:18:09.374Z,7.29
2023-02-23T02:21:28.542Z,7.40
2023-02-23T02:25:03.064Z,7.45
2023-02-23T02:28:39.817Z,7.37
2023-02-23T02:32:21.979Z,7.47
2023-02-23T02:35:33.895Z,7.29
2023-02-23T02:39:10.925Z,7.30
2023-02-23T02:42:43.924Z,7.43
2023-02-23T02:46:19.967Z,7.49
2023-02-23T02:49:28.843Z,7.47
2023-02-23T02:52:40.968Z,7.43
2023-02-23T02:55:48.360Z,7.35
2023-02-23T02:58:53.670Z,7.44
2023-02-23T03:02:23.548Z,7.41
2023-02-23T03:06:10.544Z,7.49
2023-02-23T03:10:11.719Z,7.31
2023-02-23T03:14:14.651Z,7.27
2023-02-23T03:17:39.135Z,7.27
2023-02-23T03:21:06.519Z,7.25
2023-02-23T03:24:30.946Z,6.97
2023-02-23T03:27:55.291Z,7.05
2023-02-23T03:31:54.766Z,7.01
2023-02-23T03:35:33.090Z,7.11
2023-02-23T03:39:02.847Z,7.11
2023-02-23T03:42:31.977Z,7.10
2023-02-23T03:45:55.481Z,6.97
2023-02-23T03:49:20.942Z,7.12
2023-02-23T03:53:00.556Z,7.23
2023-02-23T03:56:23.147Z,7.07
2023-02-23T03:59:52.957Z,6.83
2023-02-23T04:03:18.851Z,6.98
2023-02-23T04:06:44.712Z,6.87
2023-02-23T04:10:07.132Z,6.82
2023-02-23T04:13:21.236Z,6.81
2023-02-23T04:16:25.475Z,7.01
2023-02-23T04:19:29.212Z,6.69
2023-02-23T04:22:35.532Z,6.86
2023-02-23T04:25:41.046Z,6.98
2023-02-23T04:28:43.860Z,6.81
2023-02-23T04:31:47.375Z,6.74
2023-02-23T04:34:50.147Z,6.71
2023-02-23T04:37:53.170Z,6.78
2023-02-23T04:40:56.511Z,6.82
2023-02-23T04:44:00.008Z,6.92
2023-02-23T04:47:02.655Z,6.75
2023-02-23T04:50:06.390Z,6.65
2023-02-23T04:53:10.049Z,6.79
2023-02-23T04:56:13.119Z,6.66
2023-02-23T04:59:18.439Z,6.82
2023-02-23T05:02:23.028Z,6.72
2023-02-23T05:05:26.265Z,6.72
2023-02-23T05:08:31.274Z,6.78
2023-02-23T05:11:34.199Z,6.55
2023-02-23T05:14:37.291Z,6.35
2023-02-23T05:17:43.756Z,6.52
2023-02-23T05:20:48.029Z,6.48
2023-02-23T05:23:51.304Z,6.65
2023-02-23T05:26:57.883Z,6.62
2023-02-23T05:30:01.447Z,6.35
2023-02-23T05:33:06.229Z,6.29
2023-02-23T05:36:11.017Z,6.36
2023-02-23T05:39:15.207Z,6.49
2023-02-23T05:42:19.490Z,6.35
2023-02-23T05:45:24.609Z,6.51
2023-02-23T05:48:29.093Z,6.41
2023-02-23T05:51:34.255Z,6.53
2023-02-23T05:54:37.413Z,6.46
2023-02-23T05:57:45.930Z,6.45
2023-02-23T06:00:52.561Z,6.47
2023-02-23T06:03:58.120Z,6.43
2023-02-23T06:07:02.371Z,6.27
2023-02-23T06:10:07.213Z,6.32
2023-02-23T06:13:13.502Z,6.27
2023-02-23T06:16:16.764Z,6.32
2023-02-23T06:19:21.661Z,6.39
2023-02-23T06:22:24.948Z,6.19
2023-02-23T06:25:31.108Z,6.47
2023-02-23T06:28:37.690Z,6.61
2023-02-23T06:31:40.585Z,6.53
2023-02-23T06:34:44.964Z,6.66
2023-02-23T06:37:55.879Z,6.78
2023-02-23T06:41:00.922Z,6.47
2023-02-23T06:44:04.120Z,6.84
2023-02-23T06:47:07.748Z,6.55
2023-02-23T06:50:11.334Z,6.62
2023-02-23T06:53:14.716Z,6.67
2023-02-23T06:56:18.179Z,6.73
2023-02-23T06:59:21.657Z,6.76
2023-02-23T07:02:25.477Z,6.74
2023-02-23T07:05:31.798Z,6.86
2023-02-23T07:08:35.185Z,7.06
2023-02-23T07:11:41.198Z,7.03
2023-02-23T07:14:45.473Z,7.01
2023-02-23T07:17:51.636Z,7.08
2023-02-23T07:20:58.232Z,7.10
2023-02-23T07:24:04.929Z,6.70
2023-02-23T07:27:08.041Z,7.00
2023-02-23T07:30:12.392Z,6.97
2023-02-23T07:33:16.535Z,7.15
2023-02-23T07:36:19.575Z,7.41
2023-02-23T07:39:22.606Z,7.34
2023-02-23T07:42:26.974Z,7.43
2023-02-23T07:45:29.693Z,7.22
2023-02-23T07:48:36.381Z,7.22
2023-02-23T07:51:39.848Z,7.32
2023-02-23T07:54:43.982Z,7.38
2023-02-23T07:57:47.262Z,7.38
2023-02-23T08:00:51.755Z,7.46
2023-02-23T08:03:54.761Z,7.46
2023-02-23T08:07:00.048Z,7.57
2023-02-23T08:10:03.761Z,7.70
2023-02-23T08:13:06.777Z,7.40
2023-02-23T08:16:10.051Z,7.40
2023-02-23T08:19:12.716Z,7.60
2023-02-23T08:22:15.883Z,7.50
2023-02-23T08:25:19.226Z,7.48
2023-02-23T08:28:24.784Z,7.51
2023-02-23T08:31:27.820Z,7.71
2023-02-23T08:34:31.934Z,8.00
2023-02-23T08:37:38.646Z,7.22
2023-02-23T08:40:43.637Z,7.62
2023-02-23T08:43:54.019Z,7.83
2023-02-23T08:46:58.706Z,7.81
2023-02-23T08:50:01.772Z,8.03
2023-02-23T08:53:07.322Z,7.55
2023-02-23T08:56:11.208Z,7.77
2023-02-23T08:59:15.532Z,7.80
2023-02-23T09:02:18.288Z,7.64
2023-02-23T09:05:21.544Z,7.58
2023-02-23T09:08:26.150Z,7.72
2023-02-23T09:11:30.405Z,8.25
2023-02-23T09:14:33.810Z,8.22
2023-02-23T09:17:38.039Z,8.91
2023-02-23T09:20:45.716Z,8.41
2023-02-23T09:23:56.133Z,8.64
2023-02-23T09:26:58.936Z,8.80
2023-02-23T09:30:05.880Z,8.43
2023-02-23T09:33:09.691Z,8.65
2023-02-23T09:36:19.464Z,8.91
2023-02-23T09:39:37.226Z,8.81
2023-02-23T09:42:57.228Z,8.94
2023-02-23T09:46:06.136Z,8.82
2023-02-23T09:49:22.286Z,9.18
2023-02-23T09:52:33.797Z,9.56
2023-02-23T09:55:41.652Z,9.44
2023-02-23T09:58:45.171Z,9.61
2023-02-23T10:01:48.307Z,9.76
2023-02-23T10:05:02.101Z,9.74
2023-02-23T10:08:31.039Z,9.93
2023-02-23T10:12:02.419Z,9.76
2023-02-23T10:15:23.987Z,9.58
2023-02-23T10:18:46.613Z,9.63
2023-02-23T10:22:03.731Z,9.49
2023-02-23T10:25:17.958Z,10.17
2023-02-23T10:28:22.563Z,10.12
2023-02-23T10:31:46.595Z,9.97
2023-02-23T10:34:54.033Z,10.10
2023-02-23T10:37:58.533Z,10.28
2023-02-23T10:41:01.707Z,9.91
2023-02-23T10:44:16.409Z,9.61
2023-02-23T10:47:25.338Z,10.16
2023-02-23T10:50:31.631Z,10.22
2023-02-23T10:53:36.767Z,10.42
2023-02-23T10:56:46.414Z,10.33
2023-02-23T11:00:06.410Z,10.46
2023-02-23T11:03:22.691Z,10.24
2023-02-23T11:06:40.539Z,10.39
2023-02-23T11:09:47.831Z,10.45
2023-02-23T11:12:51.627Z,10.24
2023-02-23T11:16:25.443Z,10.38
2023-02-23T11:19:37.219Z,10.10
2023-02-23T11:22:42.455Z,10.46
2023-02-23T11:25:47.051Z,10.45
2023-02-23T11:28:56.590Z,10.72
2023-02-23T11:32:00.328Z,10.37
2023-02-23T11:35:21.690Z,10.39
2023-02-23T11:38:27.531Z,10.30
2023-02-23T11:41:35.318Z,10.03
2023-02-23T11:44:38.332Z,10.42
2023-02-23T11:47:48.198Z,10.55
2023-02-23T11:50:53.335Z,10.28
2023-02-23T11:53:58.000Z,9.90
2023-02-23T11:57:02.768Z,10.14
2023-02-23T12:00:12.313Z,9.91
2023-02-23T12:03:23.245Z,10.22
2023-02-23T12:06:38.346Z,10.28
2023-02-23T12:09:46.404Z,10.21
2023-02-23T12:12:53.235Z,10.07
2023-02-23T12:16:08.818Z,9.79
2023-02-23T12:19:19.548Z,9.63
2023-02-23T12:22:42.299Z,10.22
2023-02-23T12:25:57.930Z,10.46
2023-02-23T12:29:10.517Z,10.48
2023-02-23T12:32:19.796Z,10.44
2023-02-23T12:35:31.289Z,10.76
2023-02-23T12:38:54.596Z,10.69
2023-02-23T12:42:16.226Z,10.75
2023-02-23T12:45:31.628Z,10.94
2023-02-23T12:48:43.144Z,10.78
2023-02-23T12:51:58.292Z,10.88
2023-02-23T12:55:01.007Z,11.16
2023-02-23T12:58:23.192Z,11.10
2023-02-23T13:01:38.916Z,11.27
2023-02-23T13:04:45.074Z,11.24
2023-02-23T13:08:12.941Z,11.42
2023-02-23T13:11:43.078Z,11.19
2023-02-23T13:14:45.795Z,11.33
2023-02-23T13:18:29.623Z,11.41
2023-02-23T13:21:44.737Z,10.86
2023-02-23T13:24:51.440Z,11.35
2023-02-23T13:28:03.001Z,11.05
2023-02-23T13:31:25.700Z,11.00
2023-02-23T13:34:33.342Z,10.77
2023-02-23T13:38:20.106Z,11.12
2023-02-23T13:41:38.312Z,10.89
2023-02-23T13:45:03.612Z,10.79
2023-02-23T13:48:39.799Z,10.92
2023-02-23T13:52:21.363Z,11.22
2023-02-23T13:55:48.174Z,11.24
2023-02-23T13:59:01.039Z,10.70
2023-02-23T14:02:33.096Z,10.81
2023-02-23T14:05:45.167Z,10.57
2023-02-23T14:09:11.990Z,10.83
2023-02-23T14:12:23.358Z,10.81
2023-02-23T14:15:27.388Z,10.59
2023-02-23T14:18:33.705Z,10.89
2023-02-23T14:21:57.432Z,10.69
2023-02-23T14:25:34.659Z,10.65
2023-02-23T14:28:42.720Z,10.89
2023-02-23T14:32:11.658Z,11.05
2023-02-23T14:35:35.174Z,11.01
2023-02-23T14:38:47.905Z,11.19
2023-02-23T14:41:53.998Z,11.28
2023-02-23T14:45:02.907Z,10.90
2023-02-23T14:48:11.741Z,11.19
2023-02-23T14:51:24.801Z,11.42
2023-02-23T14:54:33.318Z,11.34
2023-02-23T14:57:41.057Z,11.38
2023-02-23T15:00:44.466Z,11.44
2023-02-23T15:04:12.776Z,11.12
2023-02-23T15:07:24.088Z,11.06
2023-02-23T15:10:41.078Z,11.06
2023-02-23T15:13:50.343Z,11.17
2023-02-23T15:16:56.083Z,11.22
2023-02-23T15:20:15.974Z,11.23
2023-02-23T15:23:21.599Z,11.27
2023-02-23T15:26:35.459Z,11.26
2023-02-23T15:29:38.512Z,11.32
2023-02-23T15:32:42.555Z,11.15
2023-02-23T15:35:57.014Z,10.90
2023-02-23T15:39:03.817Z,10.74
2023-02-23T15:42:11.098Z,10.75
2023-02-23T15:45:28.555Z,10.78
2023-02-23T15:48:51.284Z,10.73
2023-02-23T15:52:09.532Z,10.80
2023-02-23T15:55:24.197Z,10.69
2023-02-23T15:59:01.752Z,11.42
2023-02-23T16:02:18.028Z,11.12
2023-02-23T16:05:24.002Z,11.17
2023-02-23T16:08:29.715Z,11.35
2023-02-23T16:11:36.107Z,11.41
2023-02-23T16:15:04.385Z,11.11
2023-02-23T16:18:16.051Z,11.33
2023-02-23T16:21:24.410Z,11.23
2023-02-23T16:24:29.201Z,11.05
2023-02-23T16:27:33.283Z,10.87
2023-02-23T16:30:51.171Z,11.44
2023-02-23T16:34:00.118Z,11.01
2023-02-23T16:37:15.769Z,10.90
2023-02-23T16:40:19.839Z,11.05
2023-02-23T16:43:23.093Z,11.62
2023-02-23T16:46:30.451Z,11.43
2023-02-23T16:49:33.643Z,11.18
2023-02-23T16:52:36.549Z,11.03
2023-02-23T16:55:54.689Z,10.96
2023-02-23T16:59:02.810Z,10.91
2023-02-23T17:02:09.915Z,10.81
2023-02-23T17:05:14.825Z,10.64
2023-02-23T17:08:21.521Z,10.65
2023-02-23T17:11:24.272Z,10.62
2023-02-23T17:14:28.331Z,10.62
2023-02-23T17:17:31.528Z,10.79
2023-02-23T17:20:34.763Z,10.57
2023-02-23T17:23:48.400Z,10.47
2023-02-23T17:26:53.169Z,10.37
2023-02-23T17:29:56.210Z,10.42
2023-02-23T17:33:02.205Z,10.51
2023-02-23T17:36:08.378Z,10.53
2023-02-23T17:39:14.198Z,10.53
2023-02-23T17:42:18.253Z,10.55
2023-02-23T17:45:22.780Z,10.51
2023-02-23T17:48:27.814Z,10.49
2023-02-23T17:51:31.164Z,10.33
2023-02-23T17:54:34.168Z,10.31
2023-02-23T17:57:37.466Z,10.27
2023-02-23T18:00:40.976Z,10.30
2023-02-23T18:03:45.561Z,10.19
2023-02-23T18:06:48.807Z,10.19
2023-02-23T18:09:52.516Z,10.11
2023-02-23T18:12:55.577Z,10.13
2023-02-23T18:16:09.227Z,10.14
2023-02-23T18:19:13.229Z,10.10
2023-02-23T18:22:20.042Z,10.02
2023-02-23T18:25:28.147Z,10.17
2023-02-23T18:28:31.348Z,9.96
2023-02-23T18:31:35.230Z,9.79
2023-02-23T18:34:39.108Z,9.82
2023-02-23T18:37:42.985Z,9.77
2023-02-23T18:40:46.839Z,9.70
2023-02-23T18:43:50.860Z,9.72
2023-02-23T18:46:57.251Z,9.89
2023-02-23T18:50:03.048Z,9.81
2023-02-23T18:53:10.974Z,9.80
2023-02-23T18:56:16.805Z,9.72
2023-02-23T18:59:22.327Z,9.69
2023-02-23T19:02:27.281Z,9.86
2023-02-23T19:05:30.723Z,9.87
2023-02-23T19:08:34.012Z,9.69
2023-02-23T19:11:38.597Z,9.58
2023-02-23T19:14:49.611Z,9.61
2023-02-23T19:17:54.624Z,9.67
2023-02-23T19:20:57.484Z,9.49
2023-02-23T19:24:02.776Z,9.46
2023-02-23T19:27:06.316Z,9.38
2023-02-23T19:30:14.846Z,9.33
2023-02-23T19:33:21.569Z,9.25
2023-02-23T19:36:30.737Z,9.27
2023-02-23T19:39:33.709Z,9.11
2023-02-23T19:42:43.049Z,9.05
2023-02-23T19:45:48.987Z,9.05
2023-02-23T19:48:54.938Z,9.12
2023-02-23T19:51:58.272Z,8.95
2023-02-23T19:55:03.772Z,8.86
2023-02-23T19:58:13.366Z,8.76
2023-02-23T20:01:19.475Z,8.93
2023-02-23T20:04:23.441Z,8.84
2023-02-23T20:07:26.642Z,8.75
2023-02-23T20:10:35.127Z,8.72
2023-02-23T20:13:39.169Z,8.75
2023-02-23T20:16:42.590Z,8.67
2023-02-23T20:19:46.356Z,8.66
2023-02-23T20:22:52.533Z,8.73
2023-02-23T20:25:56.320Z,8.67
2023-02-23T20:28:59.271Z,8.54
2023-02-23T20:32:04.545Z,8.56
2023-02-23T20:35:08.012Z,8.48
2023-02-23T20:38:11.697Z,8.58
2023-02-23T20:41:15.289Z,8.49
2023-02-23T20:44:18.315Z,8.26
2023-02-23T20:47:24.741Z,8.16
2023-02-23T20:50:34.009Z,8.11
2023-02-23T20:53:37.444Z,8.11
2023-02-23T20:56:43.478Z,8.22
2023-02-23T20:59:49.833Z,8.38
2023-02-23T21:02:56.449Z,8.39
2023-02-23T21:05:59.924Z,8.30
2023-02-23T21:09:17.075Z,8.29
2023-02-23T21:12:21.649Z,8.34
2023-02-23T21:15:29.094Z,8.43
2023-02-23T21:18:32.574Z,8.21
2023-02-23T21:21:47.803Z,8.19
2023-02-23T21:24:51.362Z,8.29
2023-02-23T21:27:56.340Z,8.18
2023-02-23T21:31:01.973Z,8.20
2023-02-23T21:34:06.656Z,8.31
2023-02-23T21:37:09.832Z,8.29
2023-02-23T21:40:18.952Z,8.47
2023-02-23T21:43:23.294Z,8.46
2023-02-23T21:46:26.477Z,8.43
2023-02-23T21:49:32.145Z,8.23
2023-02-23T21:52:35.316Z,8.32
2023-02-23T21:55:40.080Z,8.28
2023-02-23T21:58:52.343Z,8.31
2023-02-23T22:01:55.462Z,8.44
2023-02-23T22:04:58.586Z,8.42
2023-02-23T22:08:01.145Z,8.46
2023-02-23T22:11:09.148Z,8.40
2023-02-23T22:14:12.292Z,8.07
2023-02-23T22:17:18.904Z,7.94
2023-02-23T22:20:22.401Z,8.18
2023-02-23T22:23:27.946Z,8.13
2023-02-23T22:26:30.608Z,8.24
2023-02-23T22:29:33.600Z,8.21
2023-02-23T22:32:36.891Z,8.27
2023-02-23T22:35:41.215Z,8.03
2023-02-23T22:38:46.706Z,8.18
2023-02-23T22:41:50.271Z,8.18
2023-02-23T22:44:53.303Z,8.12
2023-02-23T22:48:01.478Z,7.84
2023-02-23T22:51:07.883Z,7.99
2023-02-23T22:54:11.796Z,7.97
2023-02-23T22:57:15.094Z,7.93
2023-02-23T23:00:19.724Z,7.84
2023-02-23T23:03:22.381Z,7.83
2023-02-23T23:06:27.017Z,7.85
2023-02-23T23:09:29.835Z,7.76
2023-02-23T23:12:34.514Z,7.77
2023-02-23T23:15:38.996Z,7.71
2023-02-23T23:18:49.389Z,7.79
2023-02-23T23:21:56.549Z,7.56
2023-02-23T23:25:01.947Z,7.46
2023-02-23T23:28:04.843Z,7.54
2023-02-23T23:31:10.762Z,7.57
2023-02-23T23:34:16.654Z,7.53
2023-02-23T23:37:19.938Z,7.46
2023-02-23T23:40:24.518Z,7.43
2023-02-23T23:43:28.703Z,7.44
2023-02-23T23:46:35.598Z,7.46
2023-02-23T23:49:40.776Z,7.39
2023-02-23T23:52:45.638Z,7.58
2023-02-23T23:55:48.640Z,7.42
2023-02-23T23:58:54.071Z,7.36
